Garden City, KS

05:56 AM CST on nëntor 28, 2014 (GMT -0600)
N0KQX | Change Station
CLOSE
Current Station
Personal Weather Stations
Location: Garden City, KS
Elevation: 2839 ft
Nearby Weather Stations

Elev 2839 ft 37.97 °N, 100.85 °W | Updated 1 second ago

pjeserisht me re
pjeserisht me re
31.4 °F
Feels Like 31 °F
N
0.0
Era e paqendrueshme Era from JJL
Gusts 0.0 mph

Sot
High -- | Low -- °F
--% Chance of Precip.
Yesterday
High -- | Low -- °F
Precip. -- ne
7:37 AM 5:24 PM
Waxing Crescent, 39% visible
Presioni 30.00 ne
Visioni 10.0 milje
Clouds i kthjellet
Ftohtesia E erses 31 °F
Pika E Veses 25 °F
Lageshtira E ajrit 78%
Rainfall 0.00 ne
Snow Depth Not available.
UV 0 out of 12
Pollen .10 out of 12
Air Quality Not available.
Flu Activity Not available.
METAR KGCK 281054Z AUTO 26007KT 10SM CLR M03/M04 A2998 RMK AO2 SLP159 T10281044

More Conditions Fewer Conditions

Presioni 30.00 ne
Visioni 10.0 milje
Clouds i kthjellet
Ftohtesia E erses 31 °F
Pika E Veses 25 °F
Lageshtira E ajrit 78%
Rainfall 0.00 ne
Snow Depth Not available.
UV 0 out of 12
Pollen .10 out of 12
Air Quality Not available.
Flu Activity Not available.
METAR KGCK 281054Z AUTO 26007KT 10SM CLR M03/M04 A2998 RMK AO2 SLP159 T10281044

More Conditions Fewer Conditions

10-Day Weather Forecast

Almanac

Astronomy

Nov. 28, 2014 Rise Set
Actual Time
Civil Twilight
Nautical Twilight
Astronomical Twilight
Moon
Length Of Visible Light
Length of Day
Tomorrow will be .
, % of the Moon is Illuminated

Today's Extremes

State Highs State Lows

Community

WunderPhotos

Upload Photos

1,774,198 photos uploaded!

WunderBlogs® & News

Nearby

Air Quality

  Air Quality AQ Index Pollutant
Not available.

Snow Depth

Station Depth Elevation

Earthquake Activity

City Distance Mag. Time & Date
Minimum magnitude displayed is 2.5.

Coastal Water Temperatures

Vend Temperatura

Nearby Weather Stations